Time;durP1;ratioP1;P1;durP2;ratioP2;P2;SDS_P1;SDS_P2;PMS_P1;PMS_P2;Temp;Humidity;BMP_temperature;BMP_pressure;BME280_temperature;BME280_humidity;BME280_pressure;Samples;Min_cycle;Max_cycle;Signal;HPM_P1;HPM_P2
2023/04/02 00:00:58;;;;;;;12.25;4.15;;;;;;;;;;5025241;28;20045;-80
2023/04/02 00:03:24;;;;;;;9.70;4.45;;;;;;;;;;5014299;28;20528;-80
2023/04/02 00:05:50;;;;;;;10.48;4.00;;;;;;;;;;5021288;28;20048;-81
2023/04/02 00:08:19;;;;;;;7.45;3.97;;;;;;;;;;5045235;28;20251;-78
2023/04/02 00:10:50;;;;;;;9.02;4.00;;;;;;;;;;5046908;28;20047;-79
2023/04/02 00:13:16;;;;;;;7.60;4.00;;;;;;;;;;5046359;28;20150;-79
2023/04/02 00:15:43;;;;;;;9.55;4.35;;;;;;;;;;5045351;28;20500;-81
2023/04/02 00:18:13;;;;;;;9.02;4.43;;;;;;;;;;5043815;28;20053;-80
2023/04/02 00:20:41;;;;;;;7.07;4.15;;;;;;;;;;5030992;28;20060;-80
2023/04/02 00:23:10;;;;;;;11.00;5.10;;;;;;;;;;5025263;28;20049;-80
2023/04/02 00:25:41;;;;;;;10.20;4.65;;;;;;;;;;5018475;28;20397;-78
2023/04/02 00:28:12;;;;;;;6.95;4.05;;;;;;;;;;5023800;28;20049;-78
2023/04/02 00:30:38;;;;;;;7.70;4.03;;;;;;;;;;5038242;28;20099;-79
2023/04/02 00:33:04;;;;;;;9.70;4.50;;;;;;;;;;5017569;28;20045;-80
2023/04/02 00:35:30;;;;;;;9.80;4.30;;;;;;;;;;5045290;28;20052;-80
2023/04/02 00:37:59;;;;;;;7.03;3.95;;;;;;;;;;5053003;28;20041;-81
2023/04/02 00:40:27;;;;;;;8.15;4.22;;;;;;;;;;5051379;28;20106;-80
2023/04/02 00:42:54;;;;;;;8.85;4.30;;;;;;;;;;5027478;28;20045;-80
2023/04/02 00:45:28;;;;;;;7.65;4.75;;;;;;;;;;5023690;28;20064;-80
2023/04/02 00:47:58;;;;;;;9.52;4.20;;;;;;;;;;5047787;28;20045;-80
2023/04/02 00:50:27;;;;;;;6.55;3.75;;;;;;;;;;5024474;28;20145;-80
2023/04/02 00:52:54;;;;;;;10.43;4.18;;;;;;;;;;5037718;28;20124;-81
2023/04/02 00:55:35;;;;;;;7.07;3.97;;;;;;;;;;5042936;28;20060;-80
2023/04/02 00:58:01;;;;;;;9.70;4.22;;;;;;;;;;5022255;28;20045;-80
2023/04/02 01:00:32;;;;;;;7.25;4.10;;;;;;;;;;5034517;28;20052;-80
2023/04/02 01:03:17;;;;;;;10.00;4.78;;;;;;;;;;5026783;28;20551;-81
2023/04/02 01:05:49;;;;;;;5.78;3.83;;;;;;;;;;5030000;28;20048;-80
2023/04/02 01:08:21;;;;;;;6.00;3.95;;;;;;;;;;5041443;28;20040;-78
2023/04/02 01:11:06;;;;;;;7.03;3.92;;;;;;;;;;5034116;28;20041;-78
2023/04/02 01:13:32;;;;;;;6.15;3.53;;;;;;;;;;5042719;28;20346;-77
2023/04/02 01:16:16;;;;;;;8.80;3.72;;;;;;;;;;5016300;28;20124;-81
2023/04/02 01:18:52;;;;;;;8.55;3.75;;;;;;;;;;5018127;28;20124;-78
2023/04/02 01:21:24;;;;;;;8.55;4.03;;;;;;;;;;5027190;28;20242;-78
2023/04/02 01:23:56;;;;;;;7.57;4.30;;;;;;;;;;5027813;28;20048;-78
2023/04/02 01:26:35;;;;;;;6.47;3.60;;;;;;;;;;5042738;28;20048;-78
2023/04/02 01:29:05;;;;;;;8.55;4.03;;;;;;;;;;5024496;28;20049;-78
2023/04/02 01:31:32;;;;;;;5.80;3.08;;;;;;;;;;5041060;28;20048;-79
2023/04/02 01:33:59;;;;;;;7.07;3.78;;;;;;;;;;5021816;28;20536;-78
2023/04/02 01:36:37;;;;;;;6.68;3.58;;;;;;;;;;5025124;28;20057;-78
2023/04/02 01:39:11;;;;;;;7.25;3.60;;;;;;;;;;5043589;28;20037;-78
2023/04/02 01:41:55;;;;;;;6.95;3.45;;;;;;;;;;5049762;28;20072;-78
2023/04/02 01:44:45;;;;;;;6.10;3.60;;;;;;;;;;5039427;28;20516;-81
2023/04/02 01:47:12;;;;;;;7.78;3.60;;;;;;;;;;5020535;28;20409;-78
2023/04/02 01:49:39;;;;;;;7.07;3.50;;;;;;;;;;5024919;28;20053;-78
2023/04/02 01:52:06;;;;;;;7.85;3.85;;;;;;;;;;5036580;28;20046;-78
2023/04/02 01:54:33;;;;;;;7.72;4.15;;;;;;;;;;5036259;28;20451;-79
2023/04/02 01:56:59;;;;;;;7.95;3.88;;;;;;;;;;5016039;28;20053;-78
2023/04/02 01:59:27;;;;;;;8.10;3.80;;;;;;;;;;5033126;28;20057;-79
2023/04/02 02:01:58;;;;;;;6.18;3.60;;;;;;;;;;5037653;28;20041;-79
2023/04/02 02:04:24;;;;;;;7.47;3.63;;;;;;;;;;5042391;28;20044;-79
2023/04/02 02:06:51;;;;;;;11.32;4.10;;;;;;;;;;5029892;28;20052;-79
2023/04/02 02:09:24;;;;;;;6.57;3.53;;;;;;;;;;5033557;28;20099;-79
2023/04/02 02:11:51;;;;;;;9.68;3.55;;;;;;;;;;5014769;28;20045;-78
2023/04/02 02:14:18;;;;;;;5.82;3.38;;;;;;;;;;5014545;28;20122;-78
2023/04/02 02:16:45;;;;;;;5.20;3.55;;;;;;;;;;5028763;28;20061;-78
2023/04/02 02:19:23;;;;;;;8.77;3.30;;;;;;;;;;5047790;28;20120;-79
2023/04/02 02:21:52;;;;;;;4.72;3.30;;;;;;;;;;5046074;28;20080;-79
2023/04/02 02:24:20;;;;;;;7.88;3.28;;;;;;;;;;5024772;28;20068;-79
2023/04/02 02:26:47;;;;;;;6.13;3.15;;;;;;;;;;5025259;28;20055;-79
2023/04/02 02:29:16;;;;;;;6.65;3.42;;;;;;;;;;5033082;28;20081;-79
2023/04/02 02:31:43;;;;;;;5.95;3.10;;;;;;;;;;5021138;28;20041;-79
2023/04/02 02:34:15;;;;;;;7.40;3.30;;;;;;;;;;5033040;28;20107;-79
2023/04/02 02:36:49;;;;;;;4.07;3.03;;;;;;;;;;5021518;28;20073;-79
2023/04/02 02:39:20;;;;;;;5.68;3.50;;;;;;;;;;5048636;28;20122;-79
2023/04/02 02:42:04;;;;;;;7.10;3.35;;;;;;;;;;5048688;28;20048;-78
2023/04/02 02:44:36;;;;;;;5.75;3.10;;;;;;;;;;5045822;28;20041;-78
2023/04/02 02:47:08;;;;;;;5.22;3.15;;;;;;;;;;5028933;28;20139;-78
2023/04/02 02:49:40;;;;;;;7.15;3.10;;;;;;;;;;5038592;28;20057;-79
2023/04/02 02:52:12;;;;;;;5.53;3.13;;;;;;;;;;5022319;28;20040;-79
2023/04/02 02:54:42;;;;;;;6.67;3.20;;;;;;;;;;5022224;28;20516;-78
2023/04/02 02:57:10;;;;;;;4.78;2.90;;;;;;;;;;5026338;28;20588;-78
2023/04/02 02:59:37;;;;;;;6.57;3.13;;;;;;;;;;5026320;28;21558;-78
2023/04/02 03:02:04;;;;;;;4.07;2.65;;;;;;;;;;5037390;28;20056;-79
2023/04/02 03:04:34;;;;;;;5.03;2.92;;;;;;;;;;5046002;28;20083;-79
2023/04/02 03:07:02;;;;;;;7.13;2.90;;;;;;;;;;5041972;28;20477;-79
2023/04/02 03:09:28;;;;;;;5.03;2.58;;;;;;;;;;5048312;28;20049;-79
2023/04/02 03:12:14;;;;;;;5.65;2.67;;;;;;;;;;5031168;28;20527;-79
2023/04/02 03:14:43;;;;;;;5.28;2.95;;;;;;;;;;4992696;28;20098;-79
2023/04/02 03:17:18;;;;;;;4.45;2.40;;;;;;;;;;5023238;28;20037;-79
2023/04/02 03:19:44;;;;;;;4.40;2.38;;;;;;;;;;5028677;28;20045;-79
2023/04/02 03:22:14;;;;;;;5.22;2.65;;;;;;;;;;5040717;28;20040;-79
2023/04/02 03:24:42;;;;;;;7.15;2.75;;;;;;;;;;5046295;28;20508;-79
2023/04/02 03:27:09;;;;;;;4.95;2.75;;;;;;;;;;5045004;28;20049;-79
2023/04/02 03:29:37;;;;;;;7.30;3.13;;;;;;;;;;5034679;28;20508;-79
2023/04/02 03:32:26;;;;;;;6.13;2.80;;;;;;;;;;5033412;28;20036;-78
2023/04/02 03:34:56;;;;;;;6.07;2.70;;;;;;;;;;5017096;28;20049;-79
2023/04/02 03:37:23;;;;;;;5.00;2.50;;;;;;;;;;5014542;28;20508;-79
2023/04/02 03:39:53;;;;;;;3.47;2.20;;;;;;;;;;5046413;28;20049;-79
2023/04/02 03:42:26;;;;;;;6.00;2.80;;;;;;;;;;5046495;28;20068;-79
2023/04/02 03:44:55;;;;;;;6.82;2.97;;;;;;;;;;5026480;28;20539;-78
2023/04/02 03:47:39;;;;;;;6.03;2.53;;;;;;;;;;5027683;28;20134;-78
2023/04/02 03:50:18;;;;;;;7.93;2.85;;;;;;;;;;5019384;28;20049;-78
2023/04/02 03:52:44;;;;;;;3.85;2.58;;;;;;;;;;5012734;28;20046;-79
2023/04/02 03:55:14;;;;;;;5.55;2.88;;;;;;;;;;5050121;28;20552;-78
2023/04/02 03:57:47;;;;;;;5.22;2.60;;;;;;;;;;5048689;28;20086;-78
2023/04/02 04:00:19;;;;;;;6.47;2.75;;;;;;;;;;5037766;28;20044;-79
2023/04/02 04:02:49;;;;;;;6.63;2.80;;;;;;;;;;5045293;28;20038;-79
2023/04/02 04:05:24;;;;;;;5.47;2.42;;;;;;;;;;5028809;28;20053;-79
2023/04/02 04:07:56;;;;;;;4.75;2.88;;;;;;;;;;5037307;28;20041;-79
2023/04/02 04:10:24;;;;;;;6.40;2.72;;;;;;;;;;5031736;28;20056;-79
2023/04/02 04:12:52;;;;;;;6.82;3.05;;;;;;;;;;5049215;28;20037;-79
2023/04/02 04:15:24;;;;;;;6.05;2.70;;;;;;;;;;5034090;28;20045;-79
2023/04/02 04:17:52;;;;;;;6.25;2.72;;;;;;;;;;5033128;28;20041;-79
2023/04/02 04:20:21;;;;;;;5.45;2.45;;;;;;;;;;5049268;28;20053;-79
2023/04/02 04:22:54;;;;;;;7.97;2.72;;;;;;;;;;5019247;28;20049;-79
2023/04/02 04:25:32;;;;;;;4.82;2.95;;;;;;;;;;5024777;28;20065;-79
2023/04/02 04:28:04;;;;;;;6.20;2.75;;;;;;;;;;5025534;28;21529;-79
2023/04/02 04:30:46;;;;;;;4.00;2.38;;;;;;;;;;5031423;28;20056;-80
2023/04/02 04:33:23;;;;;;;5.35;2.40;;;;;;;;;;5035177;28;20053;-79
2023/04/02 04:35:53;;;;;;;6.43;2.88;;;;;;;;;;5042713;28;20088;-79
2023/04/02 04:38:26;;;;;;;7.20;2.90;;;;;;;;;;5016780;28;20502;-79
2023/04/02 04:40:53;;;;;;;6.45;2.63;;;;;;;;;;5015944;28;20397;-79
2023/04/02 04:43:26;;;;;;;6.10;2.92;;;;;;;;;;5033525;28;20095;-78
2023/04/02 04:46:02;;;;;;;5.15;2.70;;;;;;;;;;5040187;28;20044;-78
2023/04/02 04:48:35;;;;;;;7.25;2.88;;;;;;;;;;5050899;28;20049;-79
2023/04/02 04:51:07;;;;;;;5.77;2.93;;;;;;;;;;5030728;28;20073;-78
2023/04/02 04:53:33;;;;;;;5.53;2.65;;;;;;;;;;5040376;28;20037;-79
2023/04/02 04:56:01;;;;;;;5.18;2.97;;;;;;;;;;5044650;28;20183;-79
2023/04/02 04:58:32;;;;;;;5.30;2.83;;;;;;;;;;5024481;28;20057;-79
2023/04/02 05:00:58;;;;;;;5.45;2.72;;;;;;;;;;5021477;28;20053;-79
2023/04/02 05:03:34;;;;;;;6.35;2.83;;;;;;;;;;5028243;28;20107;-79
2023/04/02 05:06:18;;;;;;;5.75;2.80;;;;;;;;;;5044746;28;20045;-79
2023/04/02 05:08:46;;;;;;;4.82;2.55;;;;;;;;;;5042195;28;20061;-79
2023/04/02 05:11:23;;;;;;;4.15;2.50;;;;;;;;;;5051926;28;20103;-79
2023/04/02 05:13:52;;;;;;;6.47;2.55;;;;;;;;;;5032518;28;20052;-79
2023/04/02 05:16:18;;;;;;;6.22;2.88;;;;;;;;;;5052705;28;20311;-79
2023/04/02 05:18:50;;;;;;;5.30;2.50;;;;;;;;;;5020040;28;20069;-75
2023/04/02 05:21:19;;;;;;;7.57;2.90;;;;;;;;;;5021332;28;20077;-79
2023/04/02 05:23:45;;;;;;;5.43;2.63;;;;;;;;;;5038745;28;20138;-79
2023/04/02 05:26:15;;;;;;;2.90;2.28;;;;;;;;;;5031505;28;20501;-79
2023/04/02 05:28:45;;;;;;;4.85;2.60;;;;;;;;;;5049843;28;20072;-79
2023/04/02 05:31:14;;;;;;;7.68;2.67;;;;;;;;;;5035074;28;20393;-79
2023/04/02 05:33:44;;;;;;;5.28;2.50;;;;;;;;;;5037362;28;20593;-79
2023/04/02 05:36:11;;;;;;;5.65;2.50;;;;;;;;;;5030666;28;20054;-80
2023/04/02 05:38:39;;;;;;;7.32;2.50;;;;;;;;;;5027993;28;20041;-79
2023/04/02 05:41:19;;;;;;;5.13;2.33;;;;;;;;;;5039177;28;20049;-80
2023/04/02 05:43:46;;;;;;;5.80;2.78;;;;;;;;;;5034414;28;20042;-81
2023/04/02 05:46:17;;;;;;;5.63;2.20;;;;;;;;;;5018198;28;20056;-80
2023/04/02 05:48:45;;;;;;;4.97;2.22;;;;;;;;;;5043795;28;20106;-81
2023/04/02 05:51:16;;;;;;;5.03;2.63;;;;;;;;;;5022323;28;20857;-82
2023/04/02 05:53:49;;;;;;;3.45;2.10;;;;;;;;;;5039849;28;20514;-82
2023/04/02 05:56:38;;;;;;;6.20;2.55;;;;;;;;;;5029929;28;20135;-80
2023/04/02 05:59:12;;;;;;;5.55;2.50;;;;;;;;;;5030660;28;20049;-80
2023/04/02 06:01:38;;;;;;;;;;;;;;;;;;5045854;28;20041;-79
2023/04/02 06:04:07;;;;;;;7.10;2.80;;;;;;;;;;5028029;28;20284;-80
2023/04/02 06:06:40;;;;;;;5.22;2.25;;;;;;;;;;5045332;28;20049;-74
2023/04/02 06:09:12;;;;;;;5.38;2.33;;;;;;;;;;5037602;28;20088;-75
2023/04/02 06:11:45;;;;;;;3.70;2.42;;;;;;;;;;5014684;28;20055;-79
2023/04/02 06:14:15;;;;;;;7.15;2.55;;;;;;;;;;5015323;28;20056;-80
2023/04/02 06:16:42;;;;;;;4.60;2.20;;;;;;;;;;5033199;28;20168;-80
2023/04/02 06:19:15;;;;;;;3.13;2.08;;;;;;;;;;5038638;28;20279;-80
2023/04/02 06:21:44;;;;;;;6.60;2.67;;;;;;;;;;5024890;28;20050;-80
2023/04/02 06:24:14;;;;;;;6.57;2.45;;;;;;;;;;5021852;28;20033;-80
2023/04/02 06:26:41;;;;;;;4.28;2.50;;;;;;;;;;5036314;28;20071;-79
2023/04/02 06:29:12;;;;;;;6.20;2.70;;;;;;;;;;5046442;28;20045;-80
2023/04/02 06:31:45;;;;;;;4.97;2.38;;;;;;;;;;5035247;28;20523;-80
2023/04/02 06:34:22;;;;;;;2.28;2.10;;;;;;;;;;5017833;28;20069;-80
2023/04/02 06:36:49;;;;;;;4.57;2.20;;;;;;;;;;5040098;28;20041;-80
2023/04/02 06:39:18;;;;;;;5.10;2.10;;;;;;;;;;5021282;28;20635;-80
2023/04/02 06:41:44;;;;;;;4.68;2.20;;;;;;;;;;5032871;28;20555;-80
2023/04/02 06:44:19;;;;;;;4.22;2.10;;;;;;;;;;5037429;28;20374;-79
2023/04/02 06:46:53;;;;;;;2.88;1.90;;;;;;;;;;5041986;28;20052;-80
2023/04/02 06:49:29;;;;;;;5.28;2.25;;;;;;;;;;5039043;28;20057;-80
2023/04/02 06:51:56;;;;;;;3.65;1.88;;;;;;;;;;5026850;28;20481;-80
2023/04/02 06:54:22;;;;;;;6.88;2.22;;;;;;;;;;5041184;28;20076;-79
2023/04/02 06:56:50;;;;;;;4.60;2.42;;;;;;;;;;5034693;28;20550;-80
2023/04/02 06:59:16;;;;;;;4.85;2.10;;;;;;;;;;5038333;28;20049;-80
2023/04/02 07:01:54;;;;;;;4.53;2.47;;;;;;;;;;5023294;28;20044;-79
2023/04/02 07:04:21;;;;;;;5.43;2.10;;;;;;;;;;5032873;28;20044;-79
2023/04/02 07:06:47;;;;;;;4.78;2.17;;;;;;;;;;5015197;28;20482;-80
2023/04/02 07:09:13;;;;;;;3.78;2.30;;;;;;;;;;5021801;28;20546;-80
2023/04/02 07:11:39;;;;;;;2.45;2.10;;;;;;;;;;5028842;28;20072;-79
2023/04/02 07:14:05;;;;;;;6.38;2.05;;;;;;;;;;5020729;28;20052;-79
2023/04/02 07:16:32;;;;;;;4.10;2.03;;;;;;;;;;5044517;28;20041;-79
2023/04/02 07:18:59;;;;;;;6.25;2.40;;;;;;;;;;5045086;28;20055;-79
2023/04/02 07:21:28;;;;;;;4.15;2.00;;;;;;;;;;5026874;28;20049;-80
2023/04/02 07:23:54;;;;;;;2.78;2.17;;;;;;;;;;5043307;28;20041;-80
2023/04/02 07:26:26;;;;;;;5.32;2.13;;;;;;;;;;5020550;28;20509;-80
2023/04/02 07:28:52;;;;;;;4.78;2.05;;;;;;;;;;5052747;28;20079;-80
2023/04/02 07:31:19;;;;;;;4.28;2.00;;;;;;;;;;5040064;28;20081;-80
2023/04/02 07:33:45;;;;;;;4.25;1.90;;;;;;;;;;5015815;28;20051;-80
2023/04/02 07:36:19;;;;;;;2.10;1.92;;;;;;;;;;5046777;28;20127;-80
2023/04/02 07:38:45;;;;;;;2.67;1.98;;;;;;;;;;5026857;28;20110;-80
2023/04/02 07:41:12;;;;;;;2.65;2.20;;;;;;;;;;5024252;28;20041;-80
2023/04/02 07:43:38;;;;;;;4.03;1.92;;;;;;;;;;5024442;28;20049;-80
2023/04/02 07:46:05;;;;;;;7.25;2.22;;;;;;;;;;5021341;28;20037;-80
2023/04/02 07:48:31;;;;;;;6.53;2.17;;;;;;;;;;5036356;28;20059;-80
2023/04/02 07:50:57;;;;;;;4.78;2.20;;;;;;;;;;5051613;28;20071;-79
2023/04/02 07:53:28;;;;;;;2.35;1.95;;;;;;;;;;5051622;28;20123;-80
2023/04/02 07:55:54;;;;;;;3.47;2.05;;;;;;;;;;5025153;28;20054;-80
2023/04/02 07:58:20;;;;;;;3.30;2.20;;;;;;;;;;5015845;28;20485;-79
2023/04/02 08:00:46;;;;;;;3.10;2.13;;;;;;;;;;5048043;28;20120;-79
2023/04/02 08:03:13;;;;;;;5.85;2.00;;;;;;;;;;5023152;28;20121;-79
2023/04/02 08:05:39;;;;;;;3.20;1.98;;;;;;;;;;5040122;28;20080;-79
2023/04/02 08:08:05;;;;;;;4.32;2.45;;;;;;;;;;5024989;28;20037;-80
2023/04/02 08:10:31;;;;;;;4.43;2.05;;;;;;;;;;5027940;28;20122;-80
2023/04/02 08:12:57;;;;;;;2.78;1.83;;;;;;;;;;5031872;28;20092;-79
2023/04/02 08:15:23;;;;;;;4.05;2.17;;;;;;;;;;5046867;28;20053;-79
2023/04/02 08:17:50;;;;;;;4.32;2.08;;;;;;;;;;5020791;28;20057;-80
2023/04/02 08:20:20;;;;;;;3.42;2.08;;;;;;;;;;5023436;28;20447;-79
2023/04/02 08:22:47;;;;;;;3.92;2.22;;;;;;;;;;5051883;28;20532;-80
2023/04/02 08:25:13;;;;;;;4.57;2.15;;;;;;;;;;5025005;28;20485;-79
2023/04/02 08:27:39;;;;;;;4.18;1.92;;;;;;;;;;5044025;28;20100;-83
2023/04/02 08:30:07;;;;;;;5.15;2.10;;;;;;;;;;5023658;28;20130;-86
2023/04/02 08:32:33;;;;;;;4.88;2.28;;;;;;;;;;5019118;28;20515;-85
2023/04/02 08:34:59;;;;;;;3.35;2.20;;;;;;;;;;5040376;28;20041;-82
2023/04/02 08:37:25;;;;;;;4.50;2.53;;;;;;;;;;5056729;28;20052;-82
2023/04/02 08:39:51;;;;;;;6.47;1.90;;;;;;;;;;5040053;28;20045;-83
2023/04/02 08:42:36;;;;;;;4.03;2.50;;;;;;;;;;5040187;28;20110;-82
2023/04/02 08:45:13;;;;;;;5.15;2.13;;;;;;;;;;5026906;28;20544;-82
2023/04/02 08:47:40;;;;;;;6.57;2.45;;;;;;;;;;5043747;28;20053;-83
2023/04/02 08:50:18;;;;;;;2.17;1.90;;;;;;;;;;5017465;28;20158;-85
2023/04/02 08:52:44;;;;;;;3.25;2.30;;;;;;;;;;5027197;28;20123;-81
2023/04/02 08:55:22;;;;;;;2.55;1.90;;;;;;;;;;5018877;28;20073;-82
2023/04/02 08:57:48;;;;;;;5.32;2.30;;;;;;;;;;5043943;28;20037;-82
2023/04/02 09:00:14;;;;;;;3.78;2.00;;;;;;;;;;5042932;28;20540;-86
2023/04/02 09:02:46;;;;;;;3.40;2.05;;;;;;;;;;5042505;28;20092;-84
2023/04/02 09:05:45;;;;;;;3.05;1.77;;;;;;;;;;5041231;28;20497;-83
2023/04/02 09:08:23;;;;;;;3.80;2.17;;;;;;;;;;4987509;28;20062;-84
2023/04/02 09:11:08;;;;;;;2.75;2.20;;;;;;;;;;5037971;28;20065;-81
2023/04/02 09:13:36;;;;;;;5.88;2.72;;;;;;;;;;5022891;28;20531;-81
2023/04/02 09:16:15;;;;;;;4.25;1.75;;;;;;;;;;5038465;28;20120;-79
2023/04/02 09:18:42;;;;;;;4.88;2.00;;;;;;;;;;5016726;28;20053;-79
2023/04/02 09:21:26;;;;;;;4.43;2.00;;;;;;;;;;5036946;28;21717;-81
2023/04/02 09:23:53;;;;;;;5.30;2.20;;;;;;;;;;5017488;28;20041;-82
2023/04/02 09:26:23;;;;;;;5.53;3.28;;;;;;;;;;5033800;28;20546;-80
2023/04/02 09:28:55;;;;;;;2.25;1.95;;;;;;;;;;5043393;28;20056;-81
2023/04/02 09:31:35;;;;;;;3.45;2.10;;;;;;;;;;5028582;28;20049;-81
2023/04/02 09:34:01;;;;;;;2.75;1.60;;;;;;;;;;5017335;28;20064;-80
2023/04/02 09:36:37;;;;;;;1.90;1.73;;;;;;;;;;5039080;28;20049;-80
2023/04/02 09:39:16;;;;;;;5.30;2.03;;;;;;;;;;5040111;28;20452;-81
2023/04/02 09:41:43;;;;;;;3.63;1.55;;;;;;;;;;5047690;28;20325;-81
2023/04/02 09:44:21;;;;;;;2.03;1.80;;;;;;;;;;5022760;28;20275;-80
2023/04/02 09:46:58;;;;;;;4.22;2.00;;;;;;;;;;5039310;28;20057;-82
2023/04/02 09:49:25;;;;;;;2.90;1.80;;;;;;;;;;5032085;28;20084;-81
2023/04/02 09:52:14;;;;;;;8.68;1.83;;;;;;;;;;5034275;28;20314;-82
2023/04/02 09:54:41;;;;;;;4.55;2.00;;;;;;;;;;5034018;28;20048;-81
2023/04/02 09:57:26;;;;;;;3.15;1.80;;;;;;;;;;5017651;28;20045;-82
2023/04/02 10:00:11;;;;;;;3.38;1.80;;;;;;;;;;5020597;28;20053;-81
2023/04/02 10:02:37;;;;;;;6.25;2.13;;;;;;;;;;5034538;28;20049;-82
2023/04/02 10:05:05;;;;;;;8.85;4.57;;;;;;;;;;5032758;28;20067;-82
2023/04/02 10:07:34;;;;;;;3.80;1.73;;;;;;;;;;5037425;28;20044;-83
2023/04/02 10:10:19;;;;;;;1.90;1.67;;;;;;;;;;5039218;28;20524;-81
2023/04/02 10:12:48;;;;;;;3.92;1.85;;;;;;;;;;5021986;28;20049;-82
2023/04/02 10:15:16;;;;;;;4.57;1.95;;;;;;;;;;5041541;28;20171;-82
2023/04/02 10:17:43;;;;;;;6.18;2.28;;;;;;;;;;5020247;28;20068;-82
2023/04/02 10:20:17;;;;;;;4.70;1.95;;;;;;;;;;5041123;28;20092;-82
2023/04/02 10:22:43;;;;;;;3.80;1.70;;;;;;;;;;5020120;28;20049;-82
2023/04/02 10:25:13;;;;;;;5.38;1.65;;;;;;;;;;5023374;28;20055;-82
2023/04/02 10:27:51;;;;;;;3.63;1.80;;;;;;;;;;5026906;28;20402;-81
2023/04/02 10:30:23;;;;;;;3.55;2.08;;;;;;;;;;5021968;28;20115;-82
2023/04/02 10:33:00;;;;;;;3.90;1.80;;;;;;;;;;5021224;28;20045;-82
2023/04/02 10:36:01;;;;;;;3.35;1.58;;;;;;;;;;5044252;28;20623;-83
2023/04/02 10:38:51;;;;;;;8.10;1.85;;;;;;;;;;4974323;28;20758;-83
2023/04/02 10:41:26;;;;;;;2.92;1.65;;;;;;;;;;5005891;28;20072;-83
2023/04/02 10:43:57;;;;;;;2.90;1.60;;;;;;;;;;5032524;28;20045;-82
2023/04/02 10:46:26;;;;;;;4.53;2.00;;;;;;;;;;5041989;28;20672;-82
2023/04/02 10:49:05;;;;;;;2.08;1.83;;;;;;;;;;5024845;28;20048;-81
2023/04/02 10:51:52;;;;;;;3.13;1.40;;;;;;;;;;5019994;28;20025;-83
2023/04/02 10:54:39;;;;;;;2.35;1.65;;;;;;;;;;5014550;28;20436;-81
2023/04/02 10:57:14;;;;;;;7.60;1.77;;;;;;;;;;5024486;28;20061;-82
2023/04/02 10:59:43;;;;;;;3.67;1.85;;;;;;;;;;5021105;28;20580;-81
2023/04/02 11:02:35;;;;;;;3.42;1.70;;;;;;;;;;5041937;28;20047;-82
2023/04/02 11:05:07;;;;;;;4.22;1.73;;;;;;;;;;5036312;28;20410;-81
2023/04/02 11:07:36;;;;;;;6.47;2.22;;;;;;;;;;5024952;28;20523;-82
2023/04/02 11:10:02;;;;;;;3.78;1.50;;;;;;;;;;5042786;28;20048;-82
2023/04/02 11:12:42;;;;;;;4.47;2.03;;;;;;;;;;5026142;28;20056;-81
2023/04/02 11:15:15;;;;;;;3.10;1.50;;;;;;;;;;5012459;28;20131;-81
2023/04/02 11:17:42;;;;;;;4.10;1.65;;;;;;;;;;5033678;28;20060;-82
2023/04/02 11:20:27;;;;;;;3.22;2.33;;;;;;;;;;5031117;28;20064;-81
2023/04/02 11:23:09;;;;;;;4.50;1.90;;;;;;;;;;5015658;28;20037;-81
2023/04/02 11:28:41;;;;;;;7.55;1.73;;;;;;;;;;5023934;28;20128;-81
2023/04/02 11:31:07;;;;;;;2.28;1.40;;;;;;;;;;5016287;28;20077;-81
2023/04/02 11:33:42;;;;;;;4.82;1.85;;;;;;;;;;5037062;28;20045;-80
2023/04/02 11:36:28;;;;;;;7.97;1.90;;;;;;;;;;5020532;28;20052;-81
2023/04/02 11:38:54;;;;;;;2.67;1.40;;;;;;;;;;5038082;28;20090;-81
2023/04/02 11:41:46;;;;;;;3.17;1.50;;;;;;;;;;5020455;28;20504;-81
2023/04/02 11:44:22;;;;;;;6.90;2.05;;;;;;;;;;5032810;28;20075;-81
2023/04/02 11:46:48;;;;;;;5.32;1.50;;;;;;;;;;5035839;28;20537;-81
2023/04/02 11:49:33;;;;;;;1.67;1.48;;;;;;;;;;5034796;28;20084;-81
2023/04/02 11:52:00;;;;;;;2.35;1.63;;;;;;;;;;5034917;28;20087;-81
2023/04/02 11:54:28;;;;;;;2.35;1.63;;;;;;;;;;5034140;28;20183;-81
2023/04/02 11:57:02;;;;;;;3.97;1.52;;;;;;;;;;5015826;28;20053;-81
2023/04/02 11:59:36;;;;;;;1.95;1.65;;;;;;;;;;5034943;28;20532;-81
2023/04/02 12:02:15;;;;;;;5.78;1.70;;;;;;;;;;5034676;28;20532;-81
2023/04/02 12:04:44;;;;;;;1.92;1.60;;;;;;;;;;5024466;28;20068;-81
2023/04/02 12:07:34;;;;;;;3.50;1.77;;;;;;;;;;5010485;28;20045;-81
2023/04/02 12:10:02;;;;;;;5.35;1.90;;;;;;;;;;5019152;28;20042;-81
2023/04/02 12:12:32;;;;;;;5.20;2.10;;;;;;;;;;5040422;28;20209;-81
2023/04/02 12:14:59;;;;;;;3.33;1.50;;;;;;;;;;5021714;28;20056;-81
2023/04/02 12:17:28;;;;;;;14.70;6.05;;;;;;;;;;5030971;28;20041;-81
2023/04/02 12:19:58;;;;;;;7.05;3.70;;;;;;;;;;5020885;28;20126;-81
2023/04/02 12:22:34;;;;;;;5.25;2.78;;;;;;;;;;5019008;28;20064;-81
2023/04/02 12:25:01;;;;;;;5.78;1.83;;;;;;;;;;5035033;28;20052;-81
2023/04/02 12:27:28;;;;;;;3.83;1.90;;;;;;;;;;5030719;28;20057;-80
2023/04/02 12:29:56;;;;;;;2.67;1.77;;;;;;;;;;5048635;28;20045;-81
2023/04/02 12:32:26;;;;;;;7.70;1.90;;;;;;;;;;5041458;28;20495;-81
2023/04/02 12:34:53;;;;;;;2.85;1.63;;;;;;;;;;5026332;28;20053;-80
2023/04/02 12:37:21;;;;;;;2.17;1.50;;;;;;;;;;5033634;28;20497;-81
2023/04/02 12:39:57;;;;;;;3.00;1.63;;;;;;;;;;5048839;28;20289;-81
2023/04/02 12:42:27;;;;;;;3.20;1.50;;;;;;;;;;5024741;28;20049;-81
2023/04/02 12:44:53;;;;;;;3.75;2.03;;;;;;;;;;5036974;28;20045;-81
2023/04/02 12:47:20;;;;;;;2.53;1.48;;;;;;;;;;5036813;28;20051;-79
2023/04/02 12:49:46;;;;;;;8.43;4.55;;;;;;;;;;5025927;28;20049;-78
2023/04/02 12:52:14;;;;;;;3.72;1.98;;;;;;;;;;5021581;28;20045;-78
2023/04/02 12:54:48;;;;;;;2.30;1.48;;;;;;;;;;5023033;28;20101;-79
2023/04/02 12:57:29;;;;;;;6.57;1.80;;;;;;;;;;5023236;28;20505;-79
2023/04/02 12:59:59;;;;;;;3.72;1.60;;;;;;;;;;5024496;28;20492;-79
2023/04/02 13:02:30;;;;;;;2.47;1.55;;;;;;;;;;5023608;28;20386;-80
2023/04/02 13:05:02;;;;;;;2.03;1.40;;;;;;;;;;5022170;28;20050;-80
2023/04/02 13:07:32;;;;;;;5.25;1.65;;;;;;;;;;5019348;28;20069;-80
2023/04/02 13:10:03;;;;;;;1.70;1.60;;;;;;;;;;5015748;28;20112;-79
2023/04/02 13:12:32;;;;;;;3.03;1.80;;;;;;;;;;5034522;28;20155;-78
2023/04/02 13:15:00;;;;;;;3.58;1.60;;;;;;;;;;5032935;28;20083;-79
2023/04/02 13:17:40;;;;;;;2.38;1.58;;;;;;;;;;5029147;28;20045;-79
2023/04/02 13:20:25;;;;;;;6.60;1.73;;;;;;;;;;5027551;28;20053;-80
2023/04/02 13:22:51;;;;;;;3.08;1.40;;;;;;;;;;5022038;28;20042;-79
2023/04/02 13:25:17;;;;;;;2.58;1.63;;;;;;;;;;5014667;28;20378;-78
2023/04/02 13:27:43;;;;;;;3.65;1.70;;;;;;;;;;5016807;28;20486;-79
2023/04/02 13:30:10;;;;;;;4.22;1.75;;;;;;;;;;5015460;28;20061;-79
2023/04/02 13:32:36;;;;;;;5.53;1.63;;;;;;;;;;5022862;28;20041;-79
2023/04/02 13:35:03;;;;;;;3.78;1.77;;;;;;;;;;5018750;28;20061;-79
2023/04/02 13:37:29;;;;;;;1.83;1.52;;;;;;;;;;5013000;28;20438;-79
2023/04/02 13:39:55;;;;;;;5.07;2.00;;;;;;;;;;5020678;28;20381;-80
2023/04/02 13:42:21;;;;;;;2.47;1.70;;;;;;;;;;5020463;28;20041;-80
2023/04/02 13:44:48;;;;;;;5.25;1.70;;;;;;;;;;5031037;28;20558;-81
2023/04/02 13:47:14;;;;;;;4.18;1.73;;;;;;;;;;5011661;28;20037;-79
2023/04/02 13:49:40;;;;;;;3.55;2.10;;;;;;;;;;5021060;28;20077;-83
2023/04/02 13:52:10;;;;;;;9.32;2.20;;;;;;;;;;5018817;28;20077;-80
2023/04/02 13:54:39;;;;;;;3.13;1.80;;;;;;;;;;5032053;28;20068;-80
2023/04/02 13:57:06;;;;;;;2.30;1.80;;;;;;;;;;5018413;28;20551;-80
2023/04/02 13:59:32;;;;;;;2.00;1.83;;;;;;;;;;5025042;28;20046;-80
2023/04/02 14:02:01;;;;;;;3.63;1.75;;;;;;;;;;5016805;28;20084;-80
2023/04/02 14:04:30;;;;;;;3.83;1.75;;;;;;;;;;5042103;28;20037;-81
2023/04/02 14:06:56;;;;;;;4.25;1.80;;;;;;;;;;5045783;28;20060;-81
2023/04/02 14:09:40;;;;;;;3.95;2.10;;;;;;;;;;5025419;28;20456;-80
2023/04/02 14:12:27;;;;;;;4.72;1.83;;;;;;;;;;5038907;28;20064;-80
2023/04/02 14:14:56;;;;;;;3.65;1.80;;;;;;;;;;5012485;28;20061;-80
2023/04/02 14:17:25;;;;;;;3.35;2.05;;;;;;;;;;5039043;28;20124;-80
2023/04/02 14:20:09;;;;;;;4.15;1.77;;;;;;;;;;5016418;28;20500;-80
2023/04/02 14:22:55;;;;;;;3.70;2.00;;;;;;;;;;5028728;28;20052;-80
2023/04/02 14:25:27;;;;;;;2.85;2.05;;;;;;;;;;5037663;28;20392;-80
2023/04/02 14:28:06;;;;;;;5.07;2.00;;;;;;;;;;5038380;28;20493;-80
2023/04/02 14:30:48;;;;;;;2.95;1.80;;;;;;;;;;5036513;28;20497;-80
2023/04/02 14:33:37;;;;;;;3.33;1.90;;;;;;;;;;5040088;28;20044;-79
2023/04/02 14:36:09;;;;;;;3.95;2.08;;;;;;;;;;4990992;28;20053;-79
2023/04/02 14:38:46;;;;;;;3.75;2.15;;;;;;;;;;5036786;28;20080;-79
2023/04/02 14:41:18;;;;;;;3.60;2.00;;;;;;;;;;5015299;28;20454;-80
2023/04/02 14:43:48;;;;;;;7.32;2.13;;;;;;;;;;5025711;28;20046;-80
2023/04/02 14:46:14;;;;;;;3.33;3.03;;;;;;;;;;5025870;28;20063;-79
2023/04/02 14:48:40;;;;;;;3.60;2.20;;;;;;;;;;5041215;28;20063;-80
2023/04/02 14:51:25;;;;;;;3.15;1.90;;;;;;;;;;5044143;28;20042;-80
2023/04/02 14:53:58;;;;;;;5.93;2.30;;;;;;;;;;5040077;28;20136;-79
2023/04/02 14:56:24;;;;;;;4.50;1.92;;;;;;;;;;5043788;28;20056;-79
2023/04/02 14:59:07;;;;;;;2.75;1.70;;;;;;;;;;5019695;28;20502;-80
2023/04/02 15:01:42;;;;;;;2.50;1.90;;;;;;;;;;5023514;28;20041;-79
2023/04/02 15:04:13;;;;;;;3.78;1.90;;;;;;;;;;5027134;28;20049;-79
2023/04/02 15:06:42;;;;;;;3.42;2.03;;;;;;;;;;5026295;28;20088;-80
2023/04/02 15:09:15;;;;;;;2.67;2.20;;;;;;;;;;5018551;28;20056;-80
2023/04/02 15:11:43;;;;;;;3.15;2.20;;;;;;;;;;5042511;28;20041;-80